createdAt,value
2023-03-18T00:00:16.838Z,98383.56
2023-03-18T00:02:43.779Z,98385.34
2023-03-18T00:05:12.775Z,98394.00
2023-03-18T00:07:40.285Z,98382.69
2023-03-18T00:10:10.445Z,98394.59
2023-03-18T00:12:39.028Z,98387.97
2023-03-18T00:15:11.516Z,98386.56
2023-03-18T00:17:40.170Z,98382.19
2023-03-18T00:20:12.904Z,98373.19
2023-03-18T00:22:40.959Z,98370.63
2023-03-18T00:25:09.154Z,98371.09
2023-03-18T00:27:35.979Z,98372.53
2023-03-18T00:30:05.088Z,98361.59
2023-03-18T00:32:32.794Z,98369.97
2023-03-18T00:34:59.291Z,98372.47
2023-03-18T00:37:33.692Z,98377.06
2023-03-18T00:40:06.477Z,98402.22
2023-03-18T00:42:47.516Z,98384.06
2023-03-18T00:45:16.185Z,98392.84
2023-03-18T00:47:43.658Z,98383.19
2023-03-18T00:50:11.526Z,98380.00
2023-03-18T00:52:38.176Z,98344.22
2023-03-18T00:55:06.820Z,98377.97
2023-03-18T00:57:33.467Z,98373.50
2023-03-18T01:00:00.199Z,98381.97
2023-03-18T01:02:29.071Z,98369.28
2023-03-18T01:04:57.125Z,98375.78
2023-03-18T01:07:24.204Z,98380.69
2023-03-18T01:09:50.754Z,98376.63
2023-03-18T01:12:17.665Z,98385.50
2023-03-18T01:14:44.280Z,98412.25
2023-03-18T01:17:10.921Z,98390.56
2023-03-18T01:19:38.689Z,98382.09
2023-03-18T01:22:08.512Z,98367.09
2023-03-18T01:24:36.718Z,98397.38
2023-03-18T01:27:03.805Z,98391.03
2023-03-18T01:29:30.977Z,98384.75
2023-03-18T01:31:57.658Z,98393.38
2023-03-18T01:34:25.286Z,98403.09
2023-03-18T01:36:52.328Z,98406.38
2023-03-18T01:39:23.548Z,98414.44
2023-03-18T01:41:51.482Z,98414.13
2023-03-18T01:44:21.586Z,98427.28
2023-03-18T01:46:50.016Z,98435.09
2023-03-18T01:49:19.154Z,98437.16
2023-03-18T01:51:51.064Z,98432.09
2023-03-18T01:54:19.092Z,98429.72
2023-03-18T01:56:48.720Z,98438.31
2023-03-18T01:59:15.691Z,98440.13
2023-03-18T02:02:01.902Z,98442.94
2023-03-18T02:04:37.989Z,98451.56
2023-03-18T02:07:15.812Z,98444.63
2023-03-18T02:09:42.510Z,98441.69
2023-03-18T02:12:09.484Z,98462.94
2023-03-18T02:14:35.981Z,98465.59
2023-03-18T02:17:15.342Z,98473.13
2023-03-18T02:19:54.396Z,98465.16
2023-03-18T02:22:43.454Z,98468.78
2023-03-18T02:25:33.770Z,98470.34
2023-03-18T02:28:15.617Z,98457.81
2023-03-18T02:30:49.347Z,98464.03
2023-03-18T02:33:16.865Z,98464.97
2023-03-18T02:35:46.709Z,98452.63
2023-03-18T02:38:13.166Z,98454.31
2023-03-18T02:40:42.409Z,98462.50
2023-03-18T02:43:23.573Z,98437.19
2023-03-18T02:46:08.528Z,98438.41
2023-03-18T02:48:38.914Z,98433.19
2023-03-18T02:51:07.484Z,98437.56
2023-03-18T02:53:34.793Z,98451.47
2023-03-18T02:56:02.161Z,98444.22
2023-03-18T02:58:28.654Z,98463.63
2023-03-18T03:00:55.799Z,98454.94
2023-03-18T03:03:22.404Z,98460.47
2023-03-18T03:05:49.162Z,98449.44
2023-03-18T03:08:15.718Z,98441.88
2023-03-18T03:10:42.828Z,98451.88
2023-03-18T03:13:12.193Z,98457.66
2023-03-18T03:15:40.512Z,98442.19
2023-03-18T03:18:07.456Z,98453.59
2023-03-18T03:20:35.670Z,98456.91
2023-03-18T03:23:03.992Z,98462.00
2023-03-18T03:25:30.904Z,98456.97
2023-03-18T03:27:57.628Z,98459.59
2023-03-18T03:30:24.181Z,98457.56
2023-03-18T03:32:50.795Z,98459.34
2023-03-18T03:35:20.177Z,98450.78
2023-03-18T03:37:48.373Z,98449.34
2023-03-18T03:40:17.649Z,98450.56
2023-03-18T03:42:45.231Z,98454.44
2023-03-18T03:45:14.023Z,98449.44
2023-03-18T03:47:42.104Z,98456.75
2023-03-18T03:50:11.018Z,98455.84
2023-03-18T03:52:38.988Z,98452.59
2023-03-18T03:55:10.902Z,98449.22
2023-03-18T03:57:37.348Z,98444.72
2023-03-18T04:00:13.716Z,98454.88
2023-03-18T04:02:43.642Z,98452.16
2023-03-18T04:05:12.563Z,98448.22
2023-03-18T04:07:39.920Z,98457.44
2023-03-18T04:10:09.628Z,98456.75
2023-03-18T04:12:37.072Z,98448.03
2023-03-18T04:15:04.560Z,98456.16
2023-03-18T04:17:31.302Z,98450.09
2023-03-18T04:19:59.008Z,98442.72
2023-03-18T04:22:25.815Z,98461.50
2023-03-18T04:24:52.614Z,98456.31
2023-03-18T04:27:19.212Z,98454.88
2023-03-18T04:29:46.637Z,98451.94
2023-03-18T04:32:13.284Z,98456.72
2023-03-18T04:34:40.417Z,98448.34
2023-03-18T04:37:08.743Z,98457.72
2023-03-18T04:39:35.227Z,98471.94
2023-03-18T04:42:02.284Z,98457.72
2023-03-18T04:44:29.204Z,98463.53
2023-03-18T04:46:55.847Z,98442.81
2023-03-18T04:49:22.449Z,98440.72
2023-03-18T04:51:48.991Z,98424.78
2023-03-18T04:54:15.826Z,98419.22
2023-03-18T04:56:43.787Z,98398.28
2023-03-18T04:59:10.750Z,98414.97
2023-03-18T05:01:38.457Z,98381.97
2023-03-18T05:04:05.203Z,98386.25
2023-03-18T05:06:33.777Z,98357.41
2023-03-18T05:09:01.500Z,98352.00
2023-03-18T05:11:28.720Z,98359.63
2023-03-18T05:13:55.244Z,98379.41
2023-03-18T05:16:22.036Z,98367.25
2023-03-18T05:18:48.567Z,98350.31
2023-03-18T05:21:15.658Z,98362.78
2023-03-18T05:23:42.224Z,98355.84
2023-03-18T05:26:10.096Z,98363.97
2023-03-18T05:28:36.692Z,98372.91
2023-03-18T05:31:03.887Z,98366.78
2023-03-18T05:33:30.766Z,98378.88
2023-03-18T05:35:57.744Z,98379.69
2023-03-18T05:38:24.422Z,98374.25
2023-03-18T05:40:55.044Z,98375.91
2023-03-18T05:43:23.700Z,98355.81
2023-03-18T05:45:51.229Z,98341.25
2023-03-18T05:48:17.727Z,98340.97
2023-03-18T05:50:44.594Z,98336.91
2023-03-18T05:53:16.738Z,98349.19
2023-03-18T05:55:48.695Z,98342.16
2023-03-18T05:58:15.317Z,98371.81
2023-03-18T06:00:41.924Z,98369.47
2023-03-18T06:03:09.020Z,98365.41
2023-03-18T06:05:35.908Z,98372.66
2023-03-18T06:08:03.116Z,98384.28
2023-03-18T06:10:29.948Z,98378.31
2023-03-18T06:12:56.888Z,98382.81
2023-03-18T06:15:24.375Z,98401.16
2023-03-18T06:17:51.520Z,98395.03
2023-03-18T06:20:19.648Z,98397.38
2023-03-18T06:22:50.113Z,98393.53
2023-03-18T06:25:21.559Z,98391.59
2023-03-18T06:27:48.246Z,98435.34
2023-03-18T06:30:16.164Z,98458.28
2023-03-18T06:32:43.235Z,98460.63
2023-03-18T06:35:10.968Z,98474.28
2023-03-18T06:37:39.148Z,98473.81
2023-03-18T06:40:07.326Z,98479.66
2023-03-18T06:42:34.031Z,98492.25
2023-03-18T06:45:00.561Z,98482.97
2023-03-18T06:47:27.171Z,98509.19
2023-03-18T06:49:54.013Z,98513.66
2023-03-18T06:52:21.158Z,98524.78
2023-03-18T06:54:47.740Z,98521.13
2023-03-18T06:57:14.493Z,98518.16
2023-03-18T06:59:41.128Z,98511.38
2023-03-18T07:02:09.740Z,98532.78
2023-03-18T07:04:36.347Z,98533.13
2023-03-18T07:07:02.883Z,98533.78
2023-03-18T07:09:29.367Z,98534.41
2023-03-18T07:11:56.133Z,98534.75
2023-03-18T07:14:23.321Z,98542.06
2023-03-18T07:16:50.174Z,98540.41
2023-03-18T07:19:17.847Z,98554.34
2023-03-18T07:21:46.014Z,98552.69
2023-03-18T07:24:12.861Z,98555.16
2023-03-18T07:26:39.404Z,98562.50
2023-03-18T07:29:06.572Z,98572.97
2023-03-18T07:31:33.115Z,98577.66
2023-03-18T07:33:59.558Z,98581.66
2023-03-18T07:36:26.904Z,98592.78
2023-03-18T07:38:53.723Z,98607.53
2023-03-18T07:41:20.161Z,98605.88
2023-03-18T07:43:46.739Z,98611.66
2023-03-18T07:46:13.248Z,98606.72
2023-03-18T07:48:39.788Z,98603.16
2023-03-18T07:51:06.823Z,98604.06
2023-03-18T07:53:34.207Z,98606.69
2023-03-18T07:56:00.872Z,98619.22
2023-03-18T07:58:27.362Z,98609.91
2023-03-18T08:00:54.155Z,98606.28
2023-03-18T08:03:20.988Z,98613.63
2023-03-18T08:05:47.467Z,98611.47
2023-03-18T08:08:14.652Z,98609.56
2023-03-18T08:10:41.102Z,98614.31
2023-03-18T08:13:07.956Z,98625.66
2023-03-18T08:15:35.166Z,98610.78
2023-03-18T08:18:02.573Z,98638.06
2023-03-18T08:20:29.328Z,98612.88
2023-03-18T08:22:56.838Z,98625.50
2023-03-18T08:25:23.867Z,98617.53
2023-03-18T08:27:52.431Z,98613.84
2023-03-18T08:30:19.176Z,98617.69
2023-03-18T08:32:46.466Z,98599.09
2023-03-18T08:35:13.435Z,98631.72
2023-03-18T08:37:39.849Z,98630.22
2023-03-18T08:40:07.347Z,98641.06
2023-03-18T08:42:33.931Z,98640.66
2023-03-18T08:45:00.432Z,98645.38
2023-03-18T08:47:29.585Z,98643.47
2023-03-18T08:49:56.750Z,98637.97
2023-03-18T08:52:23.628Z,98643.81
2023-03-18T08:54:50.262Z,98655.31
2023-03-18T08:57:17.042Z,98640.19
2023-03-18T08:59:43.588Z,98642.88
2023-03-18T09:02:15.541Z,98645.44
2023-03-18T09:04:42.068Z,98651.81
2023-03-18T09:07:09.048Z,98648.81
2023-03-18T09:09:43.520Z,98657.44
2023-03-18T09:12:11.928Z,98647.59
2023-03-18T09:14:38.780Z,98652.53
2023-03-18T09:17:06.376Z,98641.94
2023-03-18T09:19:32.922Z,98640.72
2023-03-18T09:21:59.348Z,98650.19
2023-03-18T09:24:25.744Z,98653.50
2023-03-18T09:26:52.902Z,98651.41
2023-03-18T09:29:19.292Z,98656.59
2023-03-18T09:31:45.912Z,98644.81
2023-03-18T09:34:13.677Z,98648.41
2023-03-18T09:36:41.194Z,98647.88
2023-03-18T09:39:08.940Z,98644.63
2023-03-18T09:41:42.202Z,98647.84
2023-03-18T09:44:33.755Z,98642.06
2023-03-18T09:47:38.720Z,98655.38
2023-03-18T09:50:17.604Z,98672.06
2023-03-18T09:52:57.149Z,98650.88
2023-03-18T09:55:35.766Z,98664.13
2023-03-18T09:58:07.862Z,98660.50
2023-03-18T10:00:37.706Z,98649.69
2023-03-18T10:03:11.205Z,98657.94
2023-03-18T10:05:58.933Z,98659.78
2023-03-18T10:08:32.149Z,98657.50
2023-03-18T10:11:04.037Z,98659.16
2023-03-18T10:13:36.654Z,98660.25
2023-03-18T10:16:07.317Z,98664.44
2023-03-18T10:18:38.133Z,98656.03
2023-03-18T10:21:23.510Z,98659.09
2023-03-18T10:23:55.998Z,98647.97
2023-03-18T10:26:30.597Z,98661.47
2023-03-18T10:29:06.091Z,98674.53
2023-03-18T10:32:02.805Z,98667.13
2023-03-18T10:34:40.934Z,98670.44
2023-03-18T10:37:19.690Z,98664.22
2023-03-18T10:39:48.353Z,98670.78
2023-03-18T10:42:28.481Z,98667.38
2023-03-18T10:45:09.513Z,98666.38
2023-03-18T10:47:41.918Z,98663.56
2023-03-18T10:50:31.291Z,98659.38
2023-03-18T10:53:28.712Z,98660.06
2023-03-18T10:56:06.917Z,98663.28
2023-03-18T10:58:34.309Z,98660.91
2023-03-18T11:01:01.497Z,98658.97
2023-03-18T11:03:32.946Z,98660.91
2023-03-18T11:06:04.315Z,98661.41
2023-03-18T11:08:39.691Z,98668.75
2023-03-18T11:11:27.247Z,98660.50
2023-03-18T11:13:57.002Z,98657.97
2023-03-18T11:16:42.645Z,98665.22
2023-03-18T11:19:29.601Z,98657.63
2023-03-18T11:22:25.887Z,98657.72
2023-03-18T11:25:11.529Z,98659.13
2023-03-18T11:27:59.268Z,98662.09
2023-03-18T11:30:36.073Z,98661.34
2023-03-18T11:33:14.792Z,98647.00
2023-03-18T11:36:16.824Z,98630.75
2023-03-18T11:38:44.193Z,98644.16
2023-03-18T11:41:23.543Z,98641.06
2023-03-18T11:44:06.956Z,98648.09
2023-03-18T11:46:45.946Z,98631.50
2023-03-18T11:49:24.363Z,98633.88
2023-03-18T11:52:09.852Z,98622.16
2023-03-18T11:55:26.232Z,98627.69
2023-03-18T11:58:08.881Z,98623.28
2023-03-18T12:01:05.666Z,98613.09
2023-03-18T12:03:48.781Z,98631.00
2023-03-18T12:06:28.752Z,98622.06
2023-03-18T12:09:21.766Z,98623.63
2023-03-18T12:12:00.957Z,98615.28
2023-03-18T12:14:37.903Z,98606.81
2023-03-18T12:17:32.023Z,98550.91
2023-03-18T12:20:18.708Z,98628.22
2023-03-18T12:23:19.378Z,98645.63
2023-03-18T12:26:04.572Z,98620.31
2023-03-18T12:29:09.632Z,98611.00
2023-03-18T12:31:57.703Z,98627.59
2023-03-18T12:34:37.992Z,98624.53
2023-03-18T12:37:32.417Z,98617.97
2023-03-18T12:40:06.203Z,98597.31
2023-03-18T12:43:04.883Z,98605.69
2023-03-18T12:45:39.913Z,98606.09
2023-03-18T12:48:43.831Z,98615.19
2023-03-18T12:51:17.172Z,98609.50
2023-03-18T12:53:52.489Z,98614.94
2023-03-18T12:56:23.415Z,98603.94
2023-03-18T12:58:58.500Z,98610.53
2023-03-18T13:01:37.258Z,98615.78
2023-03-18T13:04:20.088Z,98616.72
2023-03-18T13:06:56.458Z,98609.28
2023-03-18T13:09:41.305Z,98602.72
2023-03-18T13:12:14.762Z,98614.41
2023-03-18T13:15:02.326Z,98610.53
2023-03-18T13:17:39.934Z,98599.66
2023-03-18T13:20:23.211Z,98616.22
2023-03-18T13:23:05.287Z,98588.47
2023-03-18T13:26:04.348Z,98587.78
2023-03-18T13:28:36.670Z,98587.78
2023-03-18T13:31:25.654Z,98584.91
2023-03-18T13:34:07.185Z,98599.00
2023-03-18T13:37:00.007Z,98602.44
2023-03-18T13:39:37.170Z,98601.19
2023-03-18T13:42:18.262Z,98613.94
2023-03-18T13:44:48.100Z,98598.09
2023-03-18T13:47:19.097Z,98595.75
2023-03-18T13:49:46.792Z,98602.91
2023-03-18T13:52:31.733Z,98598.97
2023-03-18T13:55:22.756Z,98603.31
2023-03-18T13:58:17.617Z,98601.16
2023-03-18T14:00:46.293Z,98607.25
2023-03-18T14:03:23.944Z,98593.22
2023-03-18T14:06:14.033Z,98589.03
2023-03-18T14:08:45.503Z,98591.13
2023-03-18T14:11:19.462Z,98592.41
2023-03-18T14:14:02.082Z,98581.84
2023-03-18T14:16:38.150Z,98576.25
2023-03-18T14:19:19.349Z,98579.59
2023-03-18T14:21:53.113Z,98585.38
2023-03-18T14:24:21.761Z,98589.53
2023-03-18T14:27:26.573Z,98584.50
2023-03-18T14:29:53.315Z,98582.47
2023-03-18T14:32:22.485Z,98583.53
2023-03-18T14:34:58.958Z,98582.50
2023-03-18T14:37:31.629Z,98576.47
2023-03-18T14:40:16.498Z,98572.78
2023-03-18T14:42:52.711Z,98571.28
2023-03-18T14:45:33.495Z,98569.66
2023-03-18T14:48:05.366Z,98564.72
2023-03-18T14:50:40.217Z,98565.56
2023-03-18T14:53:24.806Z,98569.66
2023-03-18T14:55:55.156Z,98561.84
2023-03-18T14:58:24.235Z,98562.03
2023-03-18T15:00:57.554Z,98572.53
2023-03-18T15:03:32.766Z,98580.38
2023-03-18T15:06:05.968Z,98582.03
2023-03-18T15:08:47.279Z,98572.50
2023-03-18T15:11:16.549Z,98574.97
2023-03-18T15:13:43.630Z,98571.28
2023-03-18T15:16:13.637Z,98567.16
2023-03-18T15:18:40.470Z,98565.56
2023-03-18T15:21:39.128Z,98564.28
2023-03-18T15:24:08.082Z,98557.69
2023-03-18T15:26:37.931Z,98562.91
2023-03-18T15:29:29.563Z,98558.53
2023-03-18T15:32:26.523Z,98559.75
2023-03-18T15:35:13.238Z,98565.94
2023-03-18T15:37:45.404Z,98562.66
2023-03-18T15:40:38.481Z,98559.72
2023-03-18T15:43:11.091Z,98560.59
2023-03-18T15:45:45.783Z,98556.03
2023-03-18T15:48:37.687Z,98552.75
2023-03-18T15:51:08.722Z,98555.00
2023-03-18T15:53:42.962Z,98559.50
2023-03-18T15:56:32.561Z,98561.38
2023-03-18T15:59:09.214Z,98570.63
2023-03-18T16:01:36.440Z,98567.53
2023-03-18T16:04:10.344Z,98573.28
2023-03-18T16:06:38.767Z,98560.75
2023-03-18T16:09:17.977Z,98567.75
2023-03-18T16:12:13.248Z,98563.22
2023-03-18T16:14:44.019Z,98578.25
2023-03-18T16:17:22.022Z,98571.88
2023-03-18T16:19:53.779Z,98570.22
2023-03-18T16:22:20.589Z,98577.81
2023-03-18T16:24:47.933Z,98576.59
2023-03-18T16:27:29.030Z,98556.31
2023-03-18T16:29:56.196Z,98560.00
2023-03-18T16:32:23.118Z,98589.44
2023-03-18T16:34:50.425Z,98585.53
2023-03-18T16:37:25.793Z,98594.13
2023-03-18T16:39:57.893Z,98603.59
2023-03-18T16:42:25.114Z,98583.50
2023-03-18T16:44:52.389Z,98602.84
2023-03-18T16:47:28.552Z,98604.69
2023-03-18T16:49:56.422Z,98569.72
2023-03-18T16:52:23.479Z,98609.09
2023-03-18T16:54:50.257Z,98606.41
2023-03-18T16:57:22.416Z,98612.06
2023-03-18T16:59:54.228Z,98607.13
2023-03-18T17:02:35.664Z,98606.47
2023-03-18T17:05:03.070Z,98594.63
2023-03-18T17:07:29.744Z,98572.63
2023-03-18T17:09:56.820Z,98604.25
2023-03-18T17:12:25.343Z,98607.38
2023-03-18T17:14:57.504Z,98594.44
2023-03-18T17:17:33.060Z,98602.38
2023-03-18T17:20:00.224Z,98597.72
2023-03-18T17:22:32.776Z,98576.97
2023-03-18T17:25:01.449Z,98599.22
2023-03-18T17:27:34.784Z,98583.06
2023-03-18T17:30:01.482Z,98599.53
2023-03-18T17:32:27.955Z,98570.34
2023-03-18T17:34:54.956Z,98588.44
2023-03-18T17:37:23.588Z,98586.50
2023-03-18T17:39:54.492Z,98587.09
2023-03-18T17:42:30.785Z,98580.13
2023-03-18T17:45:15.743Z,98549.59
2023-03-18T17:47:42.248Z,98576.72
2023-03-18T17:50:15.796Z,98570.09
2023-03-18T17:52:42.267Z,98576.94
2023-03-18T17:55:27.370Z,98584.38
2023-03-18T17:57:54.586Z,98593.72
2023-03-18T18:00:24.837Z,98586.66
2023-03-18T18:02:52.630Z,98583.56
2023-03-18T18:05:21.801Z,98558.00
2023-03-18T18:07:49.485Z,98572.00
2023-03-18T18:10:19.233Z,98547.78
2023-03-18T18:12:49.810Z,98549.78
2023-03-18T18:15:18.917Z,98527.03
2023-03-18T18:17:46.858Z,98562.56
2023-03-18T18:20:16.024Z,98536.19
2023-03-18T18:22:46.097Z,98527.03
2023-03-18T18:25:19.955Z,98512.63
2023-03-18T18:27:48.300Z,98509.28
2023-03-18T18:30:17.649Z,98505.63
2023-03-18T18:32:47.180Z,98493.69
2023-03-18T18:35:16.270Z,98506.13
2023-03-18T18:37:43.637Z,98522.88
2023-03-18T18:40:12.317Z,98518.56
2023-03-18T18:42:41.559Z,98511.25
2023-03-18T18:45:14.773Z,98511.59
2023-03-18T18:47:41.764Z,98501.28
2023-03-18T18:50:16.700Z,98481.00
2023-03-18T18:52:43.161Z,98459.13
2023-03-18T18:55:12.029Z,98447.53
2023-03-18T18:57:42.821Z,98431.41
2023-03-18T19:00:23.641Z,98421.31
2023-03-18T19:02:53.318Z,98418.00
2023-03-18T19:05:19.982Z,98421.00
2023-03-18T19:07:46.539Z,98400.44
2023-03-18T19:10:15.781Z,98394.81
2023-03-18T19:12:44.852Z,98387.00
2023-03-18T19:15:14.147Z,98386.84
2023-03-18T19:17:43.379Z,98380.72
2023-03-18T19:20:30.742Z,98382.19
2023-03-18T19:22:57.688Z,98379.41
2023-03-18T19:25:25.694Z,98372.34
2023-03-18T19:27:53.701Z,98331.75
2023-03-18T19:30:22.737Z,98312.56
2023-03-18T19:32:50.669Z,98289.03
2023-03-18T19:35:17.190Z,98296.66
2023-03-18T19:37:45.654Z,98292.66
2023-03-18T19:40:25.915Z,98271.63
2023-03-18T19:42:53.084Z,98266.34
2023-03-18T19:45:20.060Z,98265.47
2023-03-18T19:47:46.824Z,98235.69
2023-03-18T19:50:17.917Z,98233.38
2023-03-18T19:52:44.696Z,98227.25
2023-03-18T19:55:17.472Z,98228.59
2023-03-18T19:57:44.957Z,98229.75
2023-03-18T20:00:24.618Z,98246.66
2023-03-18T20:02:51.161Z,98248.31
2023-03-18T20:05:22.749Z,98227.78
2023-03-18T20:07:50.453Z,98196.97
2023-03-18T20:10:21.753Z,98183.53
2023-03-18T20:12:50.596Z,98171.63
2023-03-18T20:15:21.020Z,98144.31
2023-03-18T20:17:49.414Z,98140.34
2023-03-18T20:20:18.086Z,98144.84
2023-03-18T20:22:48.268Z,98145.66
2023-03-18T20:25:37.108Z,98147.31
2023-03-18T20:28:05.117Z,98153.63
2023-03-18T20:30:37.334Z,98178.78
2023-03-18T20:33:04.643Z,98164.06
2023-03-18T20:35:34.232Z,98134.09
2023-03-18T20:38:05.992Z,98169.50
2023-03-18T20:40:32.697Z,98144.38
2023-03-18T20:42:59.858Z,98144.69
2023-03-18T20:45:27.030Z,98129.44
2023-03-18T20:47:53.409Z,98117.53
2023-03-18T20:50:25.844Z,98127.81
2023-03-18T20:52:52.812Z,98118.19
2023-03-18T20:55:26.504Z,98114.56
2023-03-18T20:57:53.559Z,98097.19
2023-03-18T21:00:24.477Z,98104.31
2023-03-18T21:02:53.698Z,98102.31
2023-03-18T21:05:20.428Z,98091.91
2023-03-18T21:07:47.976Z,98082.81
2023-03-18T21:10:20.697Z,98071.91
2023-03-18T21:12:48.253Z,98071.88
2023-03-18T21:15:17.859Z,98079.16
2023-03-18T21:17:45.837Z,98079.16
2023-03-18T21:20:22.545Z,98070.38
2023-03-18T21:22:50.517Z,98058.16
2023-03-18T21:25:25.621Z,98050.38
2023-03-18T21:27:52.561Z,98044.75
2023-03-18T21:30:22.030Z,98021.75
2023-03-18T21:32:50.680Z,98021.25
2023-03-18T21:35:26.139Z,98023.44
2023-03-18T21:37:53.305Z,98014.00
2023-03-18T21:40:24.946Z,97996.47
2023-03-18T21:42:52.042Z,98033.31
2023-03-18T21:45:22.833Z,98034.16
2023-03-18T21:47:49.556Z,98027.88
2023-03-18T21:50:21.787Z,98014.31
2023-03-18T21:52:48.683Z,98035.81
2023-03-18T21:55:15.129Z,98045.88
2023-03-18T21:57:41.549Z,98065.91
2023-03-18T22:00:13.744Z,98082.63
2023-03-18T22:02:40.349Z,98087.09
2023-03-18T22:05:12.688Z,98052.53
2023-03-18T22:07:40.789Z,98060.09
2023-03-18T22:10:08.464Z,98062.59
2023-03-18T22:12:35.938Z,98072.88
2023-03-18T22:15:02.639Z,98091.41
2023-03-18T22:17:30.772Z,98090.72
2023-03-18T22:19:58.539Z,98077.16
2023-03-18T22:22:51.635Z,98048.41
2023-03-18T22:25:37.023Z,98009.69
2023-03-18T22:28:04.236Z,97973.63
2023-03-18T22:30:33.033Z,97945.22
2023-03-18T22:33:01.177Z,97915.47
2023-03-18T22:35:29.481Z,97892.97
2023-03-18T22:37:56.233Z,97863.25
2023-03-18T22:40:27.284Z,97840.75
2023-03-18T22:42:56.350Z,97803.75
2023-03-18T22:45:28.543Z,97778.03
2023-03-18T22:47:57.964Z,97755.88
2023-03-18T22:50:26.781Z,97734.06
2023-03-18T22:52:59.470Z,97701.38
2023-03-18T22:55:28.598Z,97666.06
2023-03-18T22:57:55.064Z,97631.75
2023-03-18T23:00:39.966Z,97618.19
2023-03-18T23:03:19.111Z,97589.50
2023-03-18T23:05:50.538Z,97569.19
2023-03-18T23:08:19.339Z,97541.97
2023-03-18T23:10:50.989Z,97524.81
2023-03-18T23:13:32.782Z,97514.25
2023-03-18T23:15:59.670Z,97511.91
2023-03-18T23:18:26.101Z,97514.41
2023-03-18T23:20:52.812Z,97516.84
2023-03-18T23:23:20.916Z,97514.41
2023-03-18T23:25:53.498Z,97525.72
2023-03-18T23:28:20.083Z,97519.84
2023-03-18T23:30:49.646Z,97513.28
2023-03-18T23:33:16.744Z,97508.50
2023-03-18T23:35:44.579Z,97502.84
2023-03-18T23:38:11.393Z,97512.28
2023-03-18T23:40:37.912Z,97504.00
2023-03-18T23:43:04.805Z,97515.59
2023-03-18T23:45:32.107Z,97513.06
2023-03-18T23:47:58.814Z,97525.78
2023-03-18T23:50:25.365Z,97533.84
2023-03-18T23:52:56.850Z,97530.38
2023-03-18T23:55:34.065Z,97535.97
2023-03-18T23:58:01.449Z,97538.94
